Time;durP1;ratioP1;P1;durP2;ratioP2;P2;SDS_P1;SDS_P2;PMS_P1;PMS_P2;Temp;Humidity;BMP_temperature;BMP_pressure;BME280_temperature;BME280_humidity;BME280_pressure;Samples;Min_cycle;Max_cycle;Signal;HPM_P1;HPM_P2
2022/05/31 00:00:24;;;;;;;8.00;3.30;;;10.40;1.00;;;;;;5001032;28;20461;-59
2022/05/31 00:02:51;;;;;;;7.70;3.58;;;10.40;1.00;;;;;;5007948;28;20396;-59
2022/05/31 00:05:17;;;;;;;8.32;3.20;;;10.20;1.00;;;;;;4991387;28;20398;-59
2022/05/31 00:07:43;;;;;;;7.50;3.90;;;10.10;74.50;;;;;;4988711;28;20434;-59
2022/05/31 00:10:11;;;;;;;7.80;4.20;;;10.10;99.90;;;;;;5000212;28;20491;-59
2022/05/31 00:12:37;;;;;;;7.63;3.83;;;10.30;99.90;;;;;;5008663;28;20495;-59
2022/05/31 00:15:05;;;;;;;12.25;4.30;;;10.10;99.90;;;;;;5007528;28;20886;-58
2022/05/31 00:17:30;;;;;;;8.95;3.67;;;10.00;99.90;;;;;;5012128;28;20877;-59
2022/05/31 00:19:57;;;;;;;7.45;3.22;;;10.10;99.90;;;;;;5007708;28;20397;-59
2022/05/31 00:22:25;;;;;;;6.90;3.50;;;10.10;99.90;;;;;;5011726;28;20503;-58
2022/05/31 00:24:51;;;;;;;7.67;3.40;;;10.20;99.90;;;;;;5007919;28;20393;-60
2022/05/31 00:27:20;;;;;;;7.70;3.60;;;11.20;99.90;;;;;;5011280;28;20751;-59
2022/05/31 00:29:47;;;;;;;9.40;3.90;;;10.30;99.90;;;;;;4997171;28;20418;-59
2022/05/31 00:32:15;;;;;;;7.60;3.63;;;10.30;48.40;;;;;;4993097;28;20430;-60
2022/05/31 00:34:45;;;;;;;9.00;4.00;;;10.30;12.00;;;;;;4976734;28;20402;-57
2022/05/31 00:37:12;;;;;;;8.27;3.40;;;10.30;7.50;;;;;;4992950;28;20391;-59
2022/05/31 00:39:38;;;;;;;8.33;4.00;;;10.30;8.70;;;;;;5003146;28;20912;-59
2022/05/31 00:42:08;;;;;;;9.70;4.10;;;10.20;96.30;;;;;;5011025;28;20527;-59
2022/05/31 00:44:35;;;;;;;8.20;3.70;;;10.10;99.90;;;;;;4999916;28;20394;-59
2022/05/31 00:47:17;;;;;;;7.63;3.80;;;9.90;99.90;;;;;;4992009;28;20414;-59
2022/05/31 00:49:47;;;;;;;7.40;3.60;;;9.90;99.90;;;;;;4997932;28;20409;-56
2022/05/31 00:52:28;;;;;;;7.20;3.63;;;9.90;99.90;;;;;;5011831;28;20444;-59
2022/05/31 00:55:03;;;;;;;8.40;3.72;;;9.80;1.00;;;;;;4987983;28;20420;-59
2022/05/31 00:57:32;;;;;;;7.90;3.45;;;9.80;1.00;;;;;;5008911;28;20895;-59
2022/05/31 01:00:09;;;;;;;7.97;3.97;;;9.80;1.00;;;;;;5006837;28;20424;-59
2022/05/31 01:02:36;;;;;;;8.27;3.97;;;9.80;1.00;;;;;;5008352;28;20884;-59
2022/05/31 01:05:04;;;;;;;7.50;3.50;;;9.80;1.00;;;;;;5000749;28;20511;-59
2022/05/31 01:07:30;;;;;;;9.95;3.90;;;9.70;1.00;;;;;;4989387;28;20416;-59
2022/05/31 01:09:56;;;;;;;8.73;3.90;;;9.60;1.00;;;;;;5008077;28;20461;-58
2022/05/31 01:12:23;;;;;;;8.88;4.22;;;9.50;99.90;;;;;;5009244;28;20424;-60
2022/05/31 01:14:49;;;;;;;8.50;4.22;;;9.30;1.00;;;;;;4992207;28;21018;-59
2022/05/31 01:17:21;;;;;;;9.00;4.20;;;9.40;99.90;;;;;;4992115;28;20430;-59
2022/05/31 01:19:57;;;;;;;8.00;4.07;;;9.40;99.90;;;;;;4991919;28;20367;-59
2022/05/31 01:22:45;;;;;;;8.30;4.20;;;9.60;99.90;;;;;;4991773;28;20382;-59
2022/05/31 01:25:23;;;;;;;8.23;4.00;;;9.60;1.00;;;;;;4985881;28;20391;-59
2022/05/31 01:27:57;;;;;;;8.82;4.10;;;9.60;1.00;;;;;;4990466;28;20831;-59
2022/05/31 01:30:24;;;;;;;7.80;3.72;;;9.60;1.00;;;;;;4991729;28;20453;-59
2022/05/31 01:33:08;;;;;;;7.95;3.58;;;9.60;1.00;;;;;;4993801;28;20498;-58
2022/05/31 01:35:35;;;;;;;9.27;4.10;;;9.60;99.90;;;;;;5003093;28;20434;-59
2022/05/31 01:38:23;;;;;;;8.40;3.72;;;9.40;99.90;;;;;;5003589;28;20672;-59
2022/05/31 01:40:54;;;;;;;8.70;3.88;;;9.20;1.00;;;;;;4990935;28;20386;-59
2022/05/31 01:43:19;;;;;;;9.07;4.20;;;9.00;99.90;;;;;;4991399;28;20869;-59
2022/05/31 01:46:02;;;;;;;9.80;4.30;;;9.00;1.00;;;;;;4973251;28;20458;-59
2022/05/31 01:48:30;;;;;;;9.48;4.60;;;9.00;99.90;;;;;;4991236;28;20440;-59
2022/05/31 01:50:56;;;;;;;9.23;4.60;;;9.10;78.30;;;;;;4973638;28;20398;-59
2022/05/31 01:53:21;;;;;;;9.90;4.30;;;9.00;1.00;;;;;;4991129;28;20425;-59
2022/05/31 01:55:48;;;;;;;9.10;4.88;;;9.10;99.90;;;;;;4990157;28;20872;-59
2022/05/31 01:58:22;;;;;;;9.07;4.10;;;9.20;1.00;;;;;;4994322;28;20467;-59
2022/05/31 02:00:49;;;;;;;8.80;4.00;;;9.30;1.00;;;;;;5009508;28;20392;-59
2022/05/31 02:03:17;;;;;;;9.20;4.40;;;9.30;99.90;;;;;;5005278;28;20401;-59
2022/05/31 02:05:44;;;;;;;8.63;4.10;;;9.20;92.00;;;;;;4995874;28;20466;-56
2022/05/31 02:08:10;;;;;;;8.50;4.70;;;9.10;99.90;;;;;;4991071;28;20435;-59
2022/05/31 02:10:35;;;;;;;8.90;4.70;;;9.10;1.00;;;;;;4990651;28;20399;-59
2022/05/31 02:13:01;;;;;;;8.82;4.70;;;9.00;99.90;;;;;;4989634;28;20984;-58
2022/05/31 02:15:27;;;;;;;9.40;4.53;;;9.10;99.90;;;;;;4990681;28;20395;-59
2022/05/31 02:17:53;;;;;;;8.63;4.50;;;9.10;99.90;;;;;;4989718;28;20537;-59
2022/05/31 02:20:19;;;;;;;10.57;4.50;;;9.20;1.00;;;;;;4989977;28;20390;-59
2022/05/31 02:22:44;;;;;;;11.88;5.00;;;9.30;99.90;;;;;;4989502;28;20816;-58
2022/05/31 02:25:10;;;;;;;9.75;5.40;;;9.20;1.00;;;;;;4990400;28;20481;-60
2022/05/31 02:27:36;;;;;;;10.30;5.30;;;9.10;99.90;;;;;;4989839;28;20769;-59
2022/05/31 02:30:03;;;;;;;12.02;6.10;;;8.90;37.50;;;;;;4989299;28;20468;-60
2022/05/31 02:32:29;;;;;;;11.05;5.38;;;8.90;99.90;;;;;;4990088;28;20403;-59
2022/05/31 02:34:55;;;;;;;10.60;5.10;;;8.80;99.90;;;;;;4989365;28;20885;-60
2022/05/31 02:37:21;;;;;;;10.20;5.70;;;8.90;99.90;;;;;;4989824;28;20961;-60
2022/05/31 02:39:47;;;;;;;8.90;4.80;;;8.90;99.90;;;;;;4989053;28;20872;-59
2022/05/31 02:42:14;;;;;;;11.40;4.80;;;9.00;1.00;;;;;;4989978;28;20394;-59
2022/05/31 02:44:40;;;;;;;9.00;4.65;;;9.00;1.00;;;;;;4990234;28;20391;-59
2022/05/31 02:47:07;;;;;;;9.90;4.80;;;9.00;1.00;;;;;;4989229;28;20565;-59
2022/05/31 02:49:34;;;;;;;9.45;5.22;;;9.00;99.90;;;;;;4990244;28;20402;-59
2022/05/31 02:52:00;;;;;;;10.60;5.65;;;8.90;1.00;;;;;;4988806;28;20412;-59
2022/05/31 02:54:27;;;;;;;11.13;5.78;;;8.60;1.00;;;;;;4989350;28;20979;-59
2022/05/31 02:56:52;;;;;;;9.77;5.80;;;8.50;69.50;;;;;;4983184;28;20383;-57
2022/05/31 02:59:18;;;;;;;9.67;5.50;;;8.40;1.00;;;;;;4989905;28;20764;-60
2022/05/31 03:01:44;;;;;;;12.80;6.03;;;8.40;1.00;;;;;;4988569;28;20456;-56
2022/05/31 03:04:11;;;;;;;11.77;5.78;;;8.50;1.00;;;;;;4990100;28;20486;-59
2022/05/31 03:06:38;;;;;;;10.23;5.70;;;8.60;1.00;;;;;;4989574;28;20445;-59
2022/05/31 03:09:04;;;;;;;10.30;5.88;;;9.60;99.90;;;;;;4988835;28;21126;-59
2022/05/31 03:11:33;;;;;;;11.02;5.80;;;8.70;99.90;;;;;;4988759;28;20495;-59
2022/05/31 03:14:10;;;;;;;11.07;5.40;;;8.80;99.90;;;;;;4988859;28;20757;-59
2022/05/31 03:16:41;;;;;;;12.57;5.50;;;8.80;99.90;;;;;;4989666;28;20474;-59
2022/05/31 03:19:12;;;;;;;10.73;5.78;;;8.70;99.90;;;;;;4989174;28;20382;-59
2022/05/31 03:21:42;;;;;;;10.10;5.35;;;8.60;1.00;;;;;;4989447;28;20394;-60
2022/05/31 03:24:12;;;;;;;11.55;7.03;;;8.50;99.90;;;;;;4988929;28;20764;-59
2022/05/31 03:26:40;;;;;;;12.07;6.30;;;8.40;18.50;;;;;;4989434;28;20394;-60
2022/05/31 03:29:07;;;;;;;11.52;5.60;;;8.40;1.00;;;;;;4988514;28;20430;-60
2022/05/31 03:31:32;;;;;;;10.88;5.50;;;8.40;1.00;;;;;;4989476;28;20394;-60
2022/05/31 03:33:58;;;;;;;9.93;5.75;;;8.50;1.00;;;;;;4988907;28;20791;-60
2022/05/31 03:36:24;;;;;;;10.97;6.27;;;8.40;99.90;;;;;;4989351;28;20880;-59
2022/05/31 03:38:50;;;;;;;11.05;5.90;;;8.40;99.90;;;;;;4988932;28;20426;-59
2022/05/31 03:41:15;;;;;;;12.63;6.20;;;8.30;1.00;;;;;;4988678;28;20906;-60
2022/05/31 03:43:42;;;;;;;14.10;7.50;;;8.20;6.90;;;;;;4989087;28;20398;-59
2022/05/31 03:46:15;;;;;;;10.70;5.90;;;8.30;36.00;;;;;;4989004;28;20394;-59
2022/05/31 03:48:41;;;;;;;12.32;6.35;;;8.30;99.90;;;;;;4979009;28;20449;-59
2022/05/31 03:51:10;;;;;;;10.60;6.03;;;8.40;99.90;;;;;;4991296;28;20932;-59
2022/05/31 03:53:37;;;;;;;13.70;6.38;;;8.60;99.90;;;;;;4992719;28;20418;-59
2022/05/31 03:56:06;;;;;;;11.60;6.22;;;8.80;1.00;;;;;;4992418;28;21350;-59
2022/05/31 03:58:32;;;;;;;11.20;5.87;;;9.00;99.90;;;;;;4992003;28;20417;-59
2022/05/31 04:00:59;;;;;;;10.30;5.88;;;9.20;1.00;;;;;;4990958;28;20418;-59
2022/05/31 04:03:25;;;;;;;10.35;5.30;;;9.40;1.00;;;;;;4992531;28;20887;-57
2022/05/31 04:05:51;;;;;;;10.10;5.60;;;9.50;10.50;;;;;;4991982;28;20867;-57
2022/05/31 04:08:19;;;;;;;12.68;6.18;;;9.60;1.00;;;;;;4991208;28;21149;-57
2022/05/31 04:10:45;;;;;;;14.02;6.00;;;9.70;99.90;;;;;;4991491;28;20452;-59
2022/05/31 04:13:12;;;;;;;12.05;5.80;;;9.80;1.00;;;;;;4977101;28;20827;-57
2022/05/31 04:15:39;;;;;;;10.10;5.50;;;9.90;99.90;;;;;;4991850;28;20390;-57
2022/05/31 04:18:05;;;;;;;9.70;5.60;;;9.80;1.00;;;;;;4990779;28;21044;-60
2022/05/31 04:20:31;;;;;;;10.10;5.50;;;9.80;4.40;;;;;;4992012;28;20989;-58
2022/05/31 04:25:41;;;;;;;9.95;6.03;;;9.80;99.90;;;;;;4991648;28;20398;-56
2022/05/31 04:28:08;;;;;;;11.13;5.80;;;9.80;99.90;;;;;;4991363;28;20414;-59
2022/05/31 04:30:33;;;;;;;10.02;5.50;;;9.80;99.90;;;;;;4989379;28;20414;-59
2022/05/31 04:32:59;;;;;;;11.07;5.63;;;10.00;99.90;;;;;;4989409;28;20748;-57
2022/05/31 04:35:24;;;;;;;11.57;6.00;;;10.10;1.00;;;;;;4991023;28;20377;-57
2022/05/31 04:37:50;;;;;;;11.60;5.72;;;10.10;1.00;;;;;;4990484;28;20485;-57
2022/05/31 04:40:16;;;;;;;14.40;6.87;;;10.30;1.00;;;;;;4990375;28;20402;-57
2022/05/31 04:42:42;;;;;;;12.43;5.90;;;10.30;1.00;;;;;;4991438;28;20391;-57
2022/05/31 04:45:08;;;;;;;12.20;5.70;;;10.50;1.00;;;;;;4989258;28;20390;-56
2022/05/31 04:47:34;;;;;;;9.80;5.50;;;10.60;99.90;;;;;;4973436;28;21023;-58
2022/05/31 04:50:01;;;;;;;9.30;5.03;;;10.80;93.70;;;;;;4990877;28;20468;-59
2022/05/31 04:52:26;;;;;;;11.30;5.95;;;11.00;1.00;;;;;;4991478;28;20402;-57
2022/05/31 04:54:52;;;;;;;11.40;5.80;;;11.20;1.00;;;;;;4990141;28;20399;-57
2022/05/31 04:57:18;;;;;;;9.02;5.00;;;12.20;99.90;;;;;;4990791;28;20433;-60
2022/05/31 04:59:45;;;;;;;7.80;4.35;;;13.60;1.00;;;;;;4990116;28;20492;-60
2022/05/31 05:02:11;;;;;;;8.93;4.90;;;15.20;99.90;;;;;;4990175;28;20442;-58
2022/05/31 05:04:37;;;;;;;10.63;4.80;;;16.30;99.90;;;;;;4991012;28;20410;-56
2022/05/31 05:07:03;;;;;;;8.38;4.60;;;17.30;99.90;;;;;;4983393;28;20402;-56
2022/05/31 05:09:28;;;;;;;9.40;4.90;;;18.10;99.90;;;;;;4992478;28;20413;-56
2022/05/31 05:11:54;;;;;;;8.57;4.50;;;18.10;99.90;;;;;;4987433;28;20430;-56
2022/05/31 05:14:19;;;;;;;9.50;4.40;;;18.90;99.90;;;;;;4987943;28;20472;-56
2022/05/31 05:16:46;;;;;;;9.18;4.13;;;19.60;99.90;;;;;;4990402;28;20393;-59
2022/05/31 05:19:12;;;;;;;7.95;3.88;;;19.90;99.90;;;;;;4990822;28;20445;-57
2022/05/31 05:21:38;;;;;;;8.18;4.50;;;20.40;99.90;;;;;;4990404;28;20756;-57
2022/05/31 05:24:04;;;;;;;14.45;5.60;;;21.10;99.90;;;;;;4989675;28;20390;-57
2022/05/31 05:26:30;;;;;;;10.15;5.40;;;21.10;99.90;;;;;;4990558;28;20387;-56
2022/05/31 05:31:41;;;;;;;9.98;5.35;;;21.20;99.90;;;;;;4989417;28;20546;-61
2022/05/31 05:34:08;;;;;;;10.32;5.63;;;21.30;99.90;;;;;;4990390;28;20871;-57
2022/05/31 05:36:34;;;;;;;9.75;5.55;;;20.80;99.90;;;;;;4990971;28;20397;-57
2022/05/31 05:39:00;;;;;;;8.73;5.47;;;20.50;99.90;;;;;;4990321;28;20424;-58
2022/05/31 05:41:29;;;;;;;9.90;5.80;;;20.50;99.90;;;;;;4990813;28;20471;-58
2022/05/31 05:43:54;;;;;;;10.50;5.43;;;21.10;99.90;;;;;;4989554;28;20438;-58
2022/05/31 05:46:26;;;;;;;10.27;5.97;;;21.20;99.90;;;;;;4990648;28;20970;-57
2022/05/31 05:48:52;;;;;;;8.60;5.45;;;21.00;99.90;;;;;;4989495;28;20456;-57
2022/05/31 05:51:20;;;;;;;9.85;5.43;;;20.20;99.90;;;;;;4990864;28;20911;-57
2022/05/31 05:53:46;;;;;;;12.10;5.75;;;19.60;99.90;;;;;;4974236;28;20398;-59
2022/05/31 05:56:13;;;;;;;10.48;4.97;;;19.50;99.90;;;;;;4990418;28;20399;-58
2022/05/31 05:58:39;;;;;;;10.32;5.22;;;19.90;99.90;;;;;;4990636;28;20407;-57
2022/05/31 06:01:09;;;;;;;8.70;5.40;;;21.30;99.90;;;;;;4989626;28;20494;-58
2022/05/31 06:03:50;;;;;;;10.02;5.53;;;22.40;99.90;;;;;;4985486;28;20412;-59
2022/05/31 06:06:17;;;;;;;12.13;5.97;;;22.10;99.90;;;;;;4981701;28;20473;-58
2022/05/31 06:09:08;;;;;;;12.23;5.45;;;22.20;99.90;;;;;;4969462;28;20909;-58
2022/05/31 06:11:48;;;;;;;8.60;5.80;;;22.60;99.90;;;;;;4990591;28;20980;-58
2022/05/31 06:14:25;;;;;;;8.55;5.43;;;22.90;99.90;;;;;;4991730;28;20410;-58
2022/05/31 06:16:55;;;;;;;9.15;5.28;;;22.40;99.90;;;;;;4990724;28;20406;-58
2022/05/31 06:19:29;;;;;;;7.90;5.10;;;21.20;99.90;;;;;;4989839;28;20887;-57
2022/05/31 06:21:55;;;;;;;10.77;5.30;;;21.00;99.90;;;;;;4988911;28;20387;-57
2022/05/31 06:24:23;;;;;;;8.83;4.90;;;21.60;99.90;;;;;;4992046;28;20395;-57
2022/05/31 06:26:49;;;;;;;10.60;6.10;;;22.20;99.90;;;;;;4987538;28;20494;-60
2022/05/31 06:29:15;;;;;;;9.90;5.03;;;21.90;99.90;;;;;;4990216;28;20489;-57
2022/05/31 06:31:40;;;;;;;8.40;5.40;;;21.70;99.90;;;;;;4989612;28;20399;-57
2022/05/31 06:34:06;;;;;;;10.90;5.03;;;21.30;99.90;;;;;;4989668;28;20393;-57
2022/05/31 06:36:32;;;;;;;8.77;5.00;;;21.10;99.90;;;;;;4989898;28;20390;-57
2022/05/31 06:38:57;;;;;;;9.50;5.18;;;21.30;99.90;;;;;;4992989;28;20480;-57
2022/05/31 06:41:23;;;;;;;8.57;4.90;;;21.40;99.90;;;;;;4989596;28;20417;-57
2022/05/31 06:43:49;;;;;;;10.10;4.83;;;22.40;99.90;;;;;;4989625;28;20393;-60
2022/05/31 06:46:16;;;;;;;8.40;4.80;;;22.20;99.90;;;;;;4995955;28;20390;-57
2022/05/31 06:48:41;;;;;;;9.17;4.80;;;22.30;99.90;;;;;;4972353;28;20417;-57
2022/05/31 06:51:12;;;;;;;8.25;4.65;;;22.50;99.90;;;;;;4988914;28;20394;-58
2022/05/31 06:57:04;;;;;;;9.45;4.40;;;22.50;99.90;;;;;;4995268;28;20397;-57
2022/05/31 06:59:12;;;;;;;12.00;4.80;;;22.10;99.90;;;;;;4980749;28;20812;-58
2022/05/31 07:01:39;;;;;;;10.00;5.07;;;22.60;99.90;;;;;;4989852;28;20406;-58
2022/05/31 07:04:05;;;;;;;8.90;4.63;;;23.20;99.90;;;;;;4988933;28;20386;-57
2022/05/31 07:06:32;;;;;;;8.95;4.82;;;23.20;99.90;;;;;;4989158;28;20474;-58
2022/05/31 07:08:59;;;;;;;11.20;5.70;;;23.80;99.90;;;;;;4989076;28;20525;-58
2022/05/31 07:11:25;;;;;;;8.25;4.90;;;25.00;99.90;;;;;;4994030;28;20413;-58
2022/05/31 07:13:51;;;;;;;9.18;4.50;;;26.20;99.90;;;;;;4989304;28;20484;-60
2022/05/31 07:16:16;;;;;;;9.73;6.10;;;26.80;99.90;;;;;;4987093;28;20392;-58
2022/05/31 07:18:42;;;;;;;10.70;5.80;;;27.70;99.90;;;;;;4986931;28;20395;-58
2022/05/31 07:21:08;;;;;;;9.67;5.40;;;27.80;99.90;;;;;;4972225;28;21054;-58
2022/05/31 07:23:34;;;;;;;8.95;5.28;;;28.10;99.90;;;;;;4989463;28;20490;-60
2022/05/31 07:26:00;;;;;;;9.88;5.30;;;27.40;99.90;;;;;;4990739;28;20813;-59
2022/05/31 07:28:28;;;;;;;8.70;5.95;;;27.00;99.90;;;;;;4998846;28;20418;-58
2022/05/31 07:30:54;;;;;;;9.70;5.67;;;27.30;99.90;;;;;;4991790;28;20402;-58
2022/05/31 07:33:21;;;;;;;8.85;5.55;;;27.80;99.90;;;;;;4990211;28;20417;-58
2022/05/31 07:35:49;;;;;;;8.00;5.70;;;28.10;99.90;;;;;;4994981;28;20389;-59
2022/05/31 07:38:20;;;;;;;9.40;5.43;;;28.10;99.90;;;;;;4987585;28;20394;-59
2022/05/31 07:40:50;;;;;;;8.15;5.70;;;27.80;99.90;;;;;;4992693;28;20452;-58
2022/05/31 07:43:16;;;;;;;6.68;3.70;;;27.60;99.90;;;;;;4995516;28;20460;-59
2022/05/31 07:45:41;;;;;;;8.60;4.15;;;27.60;99.90;;;;;;4993335;28;20386;-59
2022/05/31 07:48:07;;;;;;;7.03;4.50;;;28.60;99.90;;;;;;4992304;28;20417;-62
2022/05/31 07:50:34;;;;;;;9.48;5.30;;;28.90;99.90;;;;;;4989731;28;20397;-58
2022/05/31 07:53:01;;;;;;;8.05;5.15;;;28.80;99.90;;;;;;4995568;28;20390;-59
2022/05/31 07:55:28;;;;;;;7.03;4.65;;;28.10;99.90;;;;;;4993049;28;20401;-58
2022/05/31 08:00:39;;;;;;;6.68;3.13;;;28.70;99.90;;;;;;4992776;28;20402;-59
2022/05/31 08:03:05;;;;;;;9.73;4.85;;;29.20;99.90;;;;;;4992280;28;20394;-59
2022/05/31 08:05:31;;;;;;;8.35;4.93;;;29.60;99.90;;;;;;4989268;28;20767;-59
2022/05/31 08:07:57;;;;;;;7.90;5.78;;;30.20;99.90;;;;;;4995244;28;20473;-56
2022/05/31 08:10:23;;;;;;;9.40;5.20;;;30.10;99.90;;;;;;4989002;28;20507;-57
2022/05/31 08:12:49;;;;;;;11.90;5.22;;;30.30;99.90;;;;;;4970441;28;20503;-57
2022/05/31 08:15:15;;;;;;;9.32;5.20;;;29.30;99.90;;;;;;4975590;28;20532;-56
2022/05/31 08:17:42;;;;;;;9.73;6.32;;;29.40;99.90;;;;;;4973374;28;20875;-56
2022/05/31 08:20:09;;;;;;;9.13;5.20;;;30.00;99.90;;;;;;4972279;28;20400;-56
2022/05/31 08:22:35;;;;;;;9.93;5.40;;;30.30;99.90;;;;;;4972838;28;20872;-56
2022/05/31 08:25:02;;;;;;;8.18;5.72;;;30.40;99.90;;;;;;4971842;28;20402;-57
2022/05/31 08:27:27;;;;;;;8.18;4.95;;;31.00;99.90;;;;;;4972055;28;20412;-56
2022/05/31 08:29:53;;;;;;;10.85;4.85;;;30.00;99.90;;;;;;4974978;28;20873;-57
2022/05/31 08:32:19;;;;;;;8.10;5.20;;;29.80;99.90;;;;;;4972095;28;20420;-57
2022/05/31 08:34:45;;;;;;;7.40;5.50;;;30.40;99.90;;;;;;4969402;28;20463;-57
2022/05/31 08:37:10;;;;;;;8.25;5.30;;;30.40;99.90;;;;;;4970028;28;21031;-56
2022/05/31 08:39:36;;;;;;;7.50;4.25;;;29.80;99.90;;;;;;4972509;28;20404;-57
2022/05/31 08:42:06;;;;;;;8.60;4.80;;;29.70;99.90;;;;;;4971486;28;20503;-59
2022/05/31 08:45:02;;;;;;;7.45;5.07;;;29.30;99.90;;;;;;4972220;28;20415;-59
2022/05/31 08:47:42;;;;;;;8.50;5.30;;;29.60;99.90;;;;;;4972080;28;20412;-60
2022/05/31 08:53:14;;;;;;;8.97;5.37;;;27.90;99.90;;;;;;4972602;28;20838;-59
2022/05/31 08:58:55;;;;;;;9.20;5.10;;;27.50;99.90;;;;;;4967787;28;20384;-59
2022/05/31 09:01:24;;;;;;;8.27;4.60;;;28.40;99.90;;;;;;4972083;28;20877;-59
2022/05/31 09:04:19;;;;;;;8.45;4.90;;;29.10;99.90;;;;;;4972037;28;20404;-60
2022/05/31 09:06:58;;;;;;;8.02;4.80;;;29.00;99.90;;;;;;4970031;28;20396;-59
2022/05/31 09:09:27;;;;;;;7.10;4.20;;;29.60;99.90;;;;;;4968765;28;20420;-59
2022/05/31 09:12:12;;;;;;;9.63;4.53;;;29.90;99.90;;;;;;4982288;28;20410;-59
2022/05/31 09:14:53;;;;;;;7.03;4.40;;;28.60;99.90;;;;;;4990238;28;20398;-59
2022/05/31 09:17:42;;;;;;;7.60;4.90;;;28.70;99.90;;;;;;4990970;28;20469;-59
2022/05/31 09:20:38;;;;;;;7.00;4.70;;;29.30;99.90;;;;;;4996770;28;20450;-59
2022/05/31 09:23:04;;;;;;;7.38;4.65;;;30.40;99.90;;;;;;4976337;28;20860;-59
2022/05/31 09:25:39;;;;;;;7.95;3.70;;;30.80;99.90;;;;;;4989588;28;20479;-59
2022/05/31 09:28:15;;;;;;;8.10;2.90;;;30.40;99.90;;;;;;4989887;28;20550;-56
2022/05/31 09:30:45;;;;;;;9.27;4.07;;;31.50;99.90;;;;;;4989021;28;20378;-56
2022/05/31 09:33:32;;;;;;;6.73;4.20;;;30.80;99.90;;;;;;4991119;28;20404;-58
2022/05/31 09:36:19;;;;;;;6.72;4.20;;;29.90;99.90;;;;;;4990985;28;20423;-57
2022/05/31 09:39:11;;;;;;;7.30;4.13;;;30.70;99.90;;;;;;4989892;28;20408;-57
2022/05/31 09:41:51;;;;;;;8.48;5.10;;;31.90;99.90;;;;;;4954087;28;20430;-56
2022/05/31 09:44:23;;;;;;;7.50;3.70;;;31.70;99.90;;;;;;4991180;28;20850;-56
2022/05/31 09:47:17;;;;;;;8.05;5.35;;;31.80;99.90;;;;;;4984148;28;20410;-59
2022/05/31 09:49:46;;;;;;;7.35;4.22;;;33.10;99.90;;;;;;4987418;28;20718;-57
2022/05/31 09:52:42;;;;;;;8.43;4.47;;;31.90;99.90;;;;;;4988271;28;20410;-57
2022/05/31 09:58:24;;;;;;;8.00;4.70;;;31.30;99.90;;;;;;4990138;28;20389;-57
2022/05/31 10:01:04;;;;;;;8.63;5.20;;;32.20;99.90;;;;;;4989996;28;20406;-57
2022/05/31 10:03:37;;;;;;;9.80;5.50;;;31.90;99.90;;;;;;4985712;28;20448;-59
2022/05/31 10:06:16;;;;;;;8.45;4.95;;;32.90;99.90;;;;;;4990981;28;20780;-57
2022/05/31 10:08:42;;;;;;;10.68;5.00;;;32.30;99.90;;;;;;5009125;28;20433;-60
2022/05/31 10:11:20;;;;;;;8.00;5.10;;;32.10;99.90;;;;;;4998510;28;20417;-58
2022/05/31 10:14:03;;;;;;;9.77;5.57;;;33.10;99.90;;;;;;4996753;28;20894;-57
2022/05/31 10:16:34;;;;;;;8.00;4.50;;;32.40;99.90;;;;;;4992924;28;20963;-58
2022/05/31 10:19:19;;;;;;;8.30;4.50;;;32.00;99.90;;;;;;4996812;28;20441;-58
2022/05/31 10:21:45;;;;;;;7.03;5.20;;;32.10;99.90;;;;;;4994601;28;20950;-57
2022/05/31 10:29:29;;;;;;;7.90;5.70;;;29.60;99.90;;;;;;5237575;22;20435;-56
2022/05/31 10:31:57;;;;;;;7.90;5.50;;;28.00;99.90;;;;;;5023140;28;20542;-57
2022/05/31 10:34:44;;;;;;;8.35;6.80;;;27.60;99.90;;;;;;5028991;28;20391;-56
2022/05/31 10:37:32;;;;;;;11.20;7.85;;;26.30;99.90;;;;;;5025004;28;20399;-57
2022/05/31 10:40:17;;;;;;;10.13;6.90;;;26.80;99.90;;;;;;5019369;28;20828;-56
2022/05/31 10:42:48;;;;;;;8.77;5.05;;;26.60;99.90;;;;;;5020505;28;20880;-58
2022/05/31 10:45:28;;;;;;;8.50;4.40;;;26.50;99.90;;;;;;5025947;28;20391;-56
2022/05/31 10:47:56;;;;;;;9.60;3.90;;;26.90;99.90;;;;;;5020305;28;20422;-56
2022/05/31 10:50:45;;;;;;;8.20;6.13;;;26.10;99.90;;;;;;5023600;28;20399;-56
2022/05/31 10:53:36;;;;;;;8.55;5.70;;;26.20;99.90;;;;;;5015160;28;20403;-56
2022/05/31 10:56:11;;;;;;;6.80;5.00;;;26.40;99.90;;;;;;5026218;28;20595;-54
2022/05/31 10:58:47;;;;;;;7.00;3.60;;;25.80;99.90;;;;;;5021701;28;20391;-54
2022/05/31 11:01:21;;;;;;;7.57;4.63;;;25.80;99.90;;;;;;5019954;28;20407;-54
2022/05/31 11:04:05;;;;;;;8.07;5.10;;;25.80;99.90;;;;;;5024363;28;20494;-54
2022/05/31 11:06:37;;;;;;;10.75;5.88;;;25.30;99.90;;;;;;5025943;28;21038;-54
2022/05/31 11:12:22;;;;;;;6.50;4.80;;;24.80;99.90;;;;;;5027907;28;20745;-56
2022/05/31 11:15:09;;;;;;;9.30;5.20;;;24.50;99.90;;;;;;5027035;28;20398;-56
2022/05/31 11:17:49;;;;;;;7.90;5.05;;;24.10;99.90;;;;;;5028192;28;20407;-56
2022/05/31 11:20:24;;;;;;;8.25;4.60;;;24.40;99.90;;;;;;5018053;28;20895;-56
2022/05/31 11:22:53;;;;;;;6.43;4.70;;;24.40;99.90;;;;;;5022310;28;20859;-56
2022/05/31 11:25:46;;;;;;;8.68;5.00;;;24.20;99.90;;;;;;5019456;28;20411;-56
2022/05/31 11:28:38;;;;;;;7.32;4.90;;;24.00;99.90;;;;;;5025692;28;20411;-56
2022/05/31 11:31:32;;;;;;;9.60;4.72;;;24.00;99.90;;;;;;5026438;28;20400;-55
2022/05/31 11:34:24;;;;;;;7.87;4.80;;;23.80;99.90;;;;;;5028127;28;20922;-56
2022/05/31 11:37:26;;;;;;;7.07;4.90;;;24.00;99.90;;;;;;5028147;28;20385;-56
2022/05/31 11:40:39;;;;;;;7.00;4.90;;;24.20;99.90;;;;;;5025734;28;20417;-56
2022/05/31 11:43:30;;;;;;;8.38;4.90;;;24.10;99.90;;;;;;5005356;28;21321;-56
2022/05/31 11:46:28;;;;;;;8.43;5.00;;;24.40;99.90;;;;;;4992823;28;20931;-56
2022/05/31 11:49:03;;;;;;;10.00;5.00;;;23.60;99.90;;;;;;5019895;28;20446;-56
2022/05/31 11:51:50;;;;;;;7.97;5.18;;;24.60;99.90;;;;;;5022141;28;20493;-55
2022/05/31 11:54:39;;;;;;;6.70;4.85;;;24.70;99.90;;;;;;5022962;28;20407;-56
2022/05/31 11:57:24;;;;;;;8.55;5.35;;;24.90;99.90;;;;;;5023989;28;20391;-56
2022/05/31 12:00:01;;;;;;;7.60;4.70;;;25.20;99.90;;;;;;5027748;28;20883;-56
2022/05/31 12:02:32;;;;;;;7.85;5.00;;;25.30;99.90;;;;;;5028447;28;20882;-56
2022/05/31 12:05:07;;;;;;;7.45;4.93;;;25.70;99.90;;;;;;5027111;28;20406;-56
2022/05/31 12:07:52;;;;;;;11.45;4.65;;;26.00;99.90;;;;;;5028507;28;20423;-56
2022/05/31 12:10:25;;;;;;;8.60;5.28;;;26.00;99.90;;;;;;5031193;28;20410;-56
2022/05/31 12:12:54;;;;;;;6.60;4.73;;;26.00;99.90;;;;;;5031407;28;20399;-57
2022/05/31 12:15:28;;;;;;;7.30;4.80;;;25.70;99.90;;;;;;5030479;28;20866;-56
2022/05/31 12:18:22;;;;;;;9.63;5.00;;;25.30;99.90;;;;;;5026349;28;20720;-56
2022/05/31 12:21:20;;;;;;;7.32;4.80;;;25.00;99.90;;;;;;5025752;28;20394;-60
2022/05/31 12:24:09;;;;;;;10.20;6.75;;;25.60;99.90;;;;;;5007561;28;20406;-59
2022/05/31 12:26:49;;;;;;;8.52;5.20;;;25.90;99.90;;;;;;5031803;28;20391;-59
2022/05/31 12:29:32;;;;;;;8.43;5.20;;;26.10;99.90;;;;;;5027002;28;20493;-56
2022/05/31 12:32:36;;;;;;;7.05;5.20;;;25.30;99.90;;;;;;5028610;28;20407;-56
2022/05/31 12:35:04;;;;;;;6.60;5.10;;;24.30;99.90;;;;;;4984469;28;20871;-56
2022/05/31 12:38:01;;;;;;;8.70;4.70;;;24.00;99.90;;;;;;5023971;28;20918;-57
2022/05/31 12:40:32;;;;;;;6.82;4.60;;;24.30;99.90;;;;;;5021716;28;20457;-56
2022/05/31 12:43:03;;;;;;;7.55;4.70;;;24.30;99.90;;;;;;5027336;28;20403;-56
2022/05/31 12:45:35;;;;;;;6.60;4.70;;;24.50;99.90;;;;;;5025810;28;20478;-57
2022/05/31 12:48:16;;;;;;;7.37;4.90;;;24.80;99.90;;;;;;5024716;28;20419;-61
2022/05/31 12:50:57;;;;;;;8.13;5.13;;;24.80;99.90;;;;;;5027015;28;20407;-61
2022/05/31 12:53:38;;;;;;;7.25;4.85;;;24.40;99.90;;;;;;5028766;28;20403;-63
2022/05/31 12:56:10;;;;;;;8.02;4.93;;;24.50;99.90;;;;;;5023882;28;20407;-60
2022/05/31 12:58:44;;;;;;;8.40;5.40;;;24.30;99.90;;;;;;5024560;28;21698;-59
2022/05/31 13:01:13;;;;;;;9.35;4.95;;;24.30;99.90;;;;;;5025998;28;20482;-63
2022/05/31 13:03:57;;;;;;;6.70;5.00;;;24.50;99.90;;;;;;5028298;28;20406;-63
2022/05/31 13:06:55;;;;;;;9.70;5.00;;;24.70;99.90;;;;;;5027218;28;20383;-62
2022/05/31 13:09:23;;;;;;;11.00;5.93;;;24.60;99.90;;;;;;5027020;28;20399;-61
2022/05/31 13:20:56;;;;;;;7.50;5.80;;;24.00;99.90;;;;;;5024794;28;20716;-63
2022/05/31 13:23:28;;;;;;;7.28;5.50;;;23.90;99.90;;;;;;5028161;28;20400;-64
2022/05/31 13:26:01;;;;;;;9.30;5.53;;;23.90;99.90;;;;;;5026871;28;20451;-63
2022/05/31 13:28:50;;;;;;;7.90;5.40;;;23.90;99.90;;;;;;5026562;28;20541;-64
2022/05/31 13:31:19;;;;;;;8.65;6.00;;;23.70;99.90;;;;;;5009270;28;20461;-64
2022/05/31 13:33:45;;;;;;;6.93;5.20;;;23.80;99.90;;;;;;5026352;28;20379;-56
2022/05/31 13:36:19;;;;;;;7.18;5.03;;;24.40;99.90;;;;;;5027040;28;20403;-64
2022/05/31 13:38:46;;;;;;;7.63;5.50;;;24.60;99.90;;;;;;5003898;28;20825;-56
2022/05/31 13:41:16;;;;;;;7.20;5.30;;;24.00;99.90;;;;;;5026994;28;20969;-61
2022/05/31 13:43:54;;;;;;;7.70;5.03;;;23.90;99.90;;;;;;5026406;28;20427;-61
2022/05/31 13:46:31;;;;;;;8.70;5.20;;;24.30;99.90;;;;;;5020607;28;20510;-61
2022/05/31 13:49:23;;;;;;;10.45;5.25;;;24.80;99.90;;;;;;5023354;28;20429;-62